createdAt,value
2022-09-27T00:04:44.643Z,12.40
2022-09-27T00:07:38.989Z,12.40
2022-09-27T00:10:33.521Z,12.40
2022-09-27T00:15:43.447Z,12.40
2022-09-27T00:18:12.099Z,12.60
2022-09-27T00:48:31.507Z,12.30
2022-09-27T00:51:05.671Z,12.20
2022-09-27T00:53:51.689Z,12.30
2022-09-27T00:56:27.798Z,12.30
2022-09-27T00:59:26.484Z,12.30
2022-09-27T01:01:53.863Z,12.30
2022-09-27T01:04:24.532Z,12.40
2022-09-27T01:06:52.016Z,12.30
2022-09-27T01:09:19.156Z,12.30
2022-09-27T01:12:04.207Z,12.40
2022-09-27T01:14:49.277Z,12.30
2022-09-27T01:17:22.115Z,12.30
2022-09-27T01:20:04.070Z,12.10
2022-09-27T01:22:42.329Z,12.30
2022-09-27T01:25:39.897Z,12.10
2022-09-27T01:28:31.552Z,12.30
2022-09-27T01:31:15.636Z,12.30
2022-09-27T01:34:04.313Z,12.30
2022-09-27T01:36:57.598Z,12.30
2022-09-27T01:39:28.235Z,12.30
2022-09-27T01:42:37.193Z,12.30
2022-09-27T01:45:21.855Z,12.30
2022-09-27T01:48:02.647Z,12.30
2022-09-27T01:50:44.811Z,12.30
2022-09-27T01:53:15.490Z,12.40
2022-09-27T01:55:44.592Z,12.40
2022-09-27T01:58:21.354Z,12.40
2022-09-27T02:00:51.438Z,12.40
2022-09-27T02:03:22.156Z,12.40
2022-09-27T02:05:57.409Z,12.30
2022-09-27T02:08:44.110Z,12.30
2022-09-27T02:11:13.621Z,12.30
2022-09-27T02:13:50.894Z,12.30
2022-09-27T02:16:41.173Z,12.40
2022-09-27T02:19:50.322Z,12.40
2022-09-27T02:22:35.759Z,12.40
2022-09-27T02:25:13.700Z,12.40
2022-09-27T02:27:48.169Z,12.40
2022-09-27T02:30:16.825Z,12.40
2022-09-27T02:32:44.244Z,12.50
2022-09-27T02:35:17.994Z,12.50
2022-09-27T02:37:45.730Z,12.50
2022-09-27T02:40:13.842Z,12.50
2022-09-27T02:42:43.069Z,12.60
2022-09-27T02:45:12.098Z,12.60
2022-09-27T02:48:00.767Z,12.60
2022-09-27T02:51:10.531Z,12.60
2022-09-27T02:53:59.775Z,12.70
2022-09-27T02:56:59.749Z,12.70
2022-09-27T02:59:50.439Z,12.60
2022-09-27T03:02:49.668Z,12.60
2022-09-27T03:05:23.804Z,12.60
2022-09-27T03:07:50.753Z,12.70
2022-09-27T03:10:23.643Z,12.70
2022-09-27T03:12:50.656Z,12.70
2022-09-27T03:15:17.762Z,12.60
2022-09-27T03:17:44.666Z,12.70
2022-09-27T03:20:11.993Z,12.60
2022-09-27T03:22:40.800Z,12.60
2022-09-27T03:25:08.276Z,12.60
2022-09-27T03:27:35.404Z,12.60
2022-09-27T03:30:02.367Z,12.60
2022-09-27T03:32:29.517Z,12.60
2022-09-27T03:34:56.537Z,12.50
2022-09-27T03:37:23.996Z,12.50
2022-09-27T03:39:50.867Z,12.50
2022-09-27T03:42:17.783Z,12.50
2022-09-27T03:44:44.757Z,12.50
2022-09-27T03:47:11.766Z,12.50
2022-09-27T03:49:38.916Z,12.50
2022-09-27T03:52:05.829Z,12.50
2022-09-27T03:54:33.229Z,12.50
2022-09-27T03:57:00.244Z,12.50
2022-09-27T03:59:27.141Z,12.50
2022-09-27T04:01:54.661Z,12.50
2022-09-27T04:04:21.748Z,12.50
2022-09-27T04:06:49.188Z,12.50
2022-09-27T04:09:16.434Z,12.50
2022-09-27T04:11:43.474Z,12.50
2022-09-27T04:14:12.990Z,12.50
2022-09-27T04:16:44.419Z,12.50
2022-09-27T04:19:11.475Z,12.50
2022-09-27T04:21:38.341Z,12.50
2022-09-27T04:24:06.572Z,12.50
2022-09-27T04:26:33.658Z,12.50
2022-09-27T04:29:00.685Z,12.50
2022-09-27T04:31:27.753Z,12.50
2022-09-27T04:33:54.962Z,12.50
2022-09-27T04:36:30.997Z,12.50
2022-09-27T04:39:00.841Z,12.50
2022-09-27T04:41:29.418Z,12.50
2022-09-27T04:43:59.346Z,12.50
2022-09-27T04:46:31.970Z,12.50
2022-09-27T04:49:05.125Z,12.50
2022-09-27T04:51:33.070Z,12.30
2022-09-27T04:54:00.042Z,12.30
2022-09-27T04:56:27.079Z,12.50
2022-09-27T04:58:54.063Z,12.50
2022-09-27T05:01:21.615Z,12.50
2022-09-27T05:03:48.879Z,12.30
2022-09-27T05:06:15.803Z,12.40
2022-09-27T05:08:42.819Z,12.40
2022-09-27T05:11:09.759Z,12.30
2022-09-27T05:13:36.831Z,12.10
2022-09-27T05:16:04.928Z,12.30
2022-09-27T05:18:32.045Z,12.40
2022-09-27T05:20:59.226Z,12.40
2022-09-27T05:23:26.762Z,12.30
2022-09-27T05:25:56.606Z,12.20
2022-09-27T05:28:26.564Z,12.20
2022-09-27T05:30:53.567Z,12.30
2022-09-27T05:33:20.586Z,12.10
2022-09-27T05:35:58.021Z,12.20
2022-09-27T05:38:25.760Z,12.20
2022-09-27T05:40:52.688Z,12.20
2022-09-27T05:43:21.426Z,12.20
2022-09-27T05:45:48.393Z,12.20
2022-09-27T05:48:15.307Z,12.20
2022-09-27T05:50:42.341Z,12.20
2022-09-27T05:53:10.055Z,12.30
2022-09-27T05:55:37.237Z,12.30
2022-09-27T05:58:06.445Z,12.30
2022-09-27T06:00:34.038Z,12.30
2022-09-27T06:03:05.509Z,12.20
2022-09-27T06:05:37.272Z,12.20
2022-09-27T06:08:07.131Z,12.20
2022-09-27T06:10:37.123Z,12.20
2022-09-27T06:13:11.439Z,12.20
2022-09-27T06:15:41.611Z,12.20
2022-09-27T06:18:11.897Z,12.20
2022-09-27T06:20:41.459Z,12.20
2022-09-27T06:23:09.521Z,12.20
2022-09-27T06:25:37.458Z,12.20
2022-09-27T06:28:05.273Z,12.20
2022-09-27T06:30:33.184Z,12.30
2022-09-27T06:33:05.618Z,12.30
2022-09-27T06:35:34.690Z,12.20
2022-09-27T06:38:04.966Z,12.30
2022-09-27T06:40:32.122Z,12.30
2022-09-27T06:43:10.419Z,12.30
2022-09-27T06:45:38.159Z,12.20
2022-09-27T06:48:07.054Z,12.20
2022-09-27T06:50:36.870Z,12.20
2022-09-27T06:53:05.395Z,12.20
2022-09-27T06:55:32.460Z,12.20
2022-09-27T06:58:20.046Z,12.10
2022-09-27T07:00:51.878Z,12.10
2022-09-27T07:03:19.924Z,12.10
2022-09-27T07:06:01.561Z,12.10
2022-09-27T07:08:29.843Z,12.10
2022-09-27T07:11:05.234Z,12.10
2022-09-27T07:13:34.373Z,12.10
2022-09-27T07:16:01.925Z,12.20
2022-09-27T07:18:28.859Z,12.20
2022-09-27T07:21:00.145Z,12.20
2022-09-27T07:23:27.664Z,12.20
2022-09-27T07:25:54.698Z,12.20
2022-09-27T07:28:22.495Z,12.20
2022-09-27T07:30:49.983Z,12.30
2022-09-27T07:33:17.152Z,12.30
2022-09-27T07:35:44.158Z,12.20
2022-09-27T07:38:14.010Z,12.20
2022-09-27T07:40:41.921Z,12.20
2022-09-27T07:43:12.366Z,12.10
2022-09-27T07:45:39.491Z,12.10
2022-09-27T07:48:13.477Z,12.10
2022-09-27T07:50:40.503Z,12.10
2022-09-27T07:53:07.473Z,12.10
2022-09-27T07:55:34.574Z,12.20
2022-09-27T07:58:07.644Z,12.10
2022-09-27T08:00:34.770Z,12.10
2022-09-27T08:03:11.472Z,12.10
2022-09-27T08:05:38.810Z,12.10
2022-09-27T08:08:13.955Z,12.10
2022-09-27T08:10:44.415Z,12.10
2022-09-27T08:13:12.263Z,12.10
2022-09-27T08:15:45.552Z,12.20
2022-09-27T08:18:12.859Z,12.30
2022-09-27T08:20:44.017Z,12.40
2022-09-27T08:26:21.730Z,12.50
2022-09-27T08:28:49.577Z,12.70
2022-09-27T08:31:17.429Z,12.70
2022-09-27T08:33:46.109Z,12.80
2022-09-27T08:36:16.611Z,12.80
2022-09-27T08:38:44.022Z,12.80
2022-09-27T08:41:30.239Z,12.80
2022-09-27T08:44:18.715Z,12.70
2022-09-27T08:47:02.112Z,12.60
2022-09-27T08:52:53.289Z,12.50
2022-09-27T08:55:41.945Z,12.60
2022-09-27T08:58:39.471Z,12.70
2022-09-27T09:01:13.021Z,12.60
2022-09-27T09:03:48.478Z,12.60
2022-09-27T09:06:35.155Z,12.60
2022-09-27T09:09:07.873Z,12.60
2022-09-27T09:11:59.412Z,12.60
2022-09-27T09:14:58.272Z,12.60
2022-09-27T09:17:45.402Z,12.50
2022-09-27T09:20:29.343Z,12.40
2022-09-27T09:23:41.269Z,12.30
2022-09-27T09:26:26.984Z,12.40
2022-09-27T09:29:00.558Z,12.40
2022-09-27T09:32:04.272Z,12.50
2022-09-27T09:34:41.592Z,12.50
2022-09-27T09:37:22.176Z,12.50
2022-09-27T09:39:51.487Z,12.50
2022-09-27T09:42:28.279Z,12.50
2022-09-27T09:45:07.481Z,12.50
2022-09-27T09:47:35.917Z,12.50
2022-09-27T09:50:28.277Z,12.60
2022-09-27T09:53:02.675Z,12.60
2022-09-27T09:55:34.970Z,12.90
2022-09-27T09:58:17.790Z,13.00
2022-09-27T10:00:48.354Z,13.30
2022-09-27T10:03:15.475Z,13.60
2022-09-27T10:05:49.488Z,13.70
2022-09-27T10:08:26.518Z,14.10
2022-09-27T10:10:57.177Z,14.20
2022-09-27T10:13:28.977Z,14.00
2022-09-27T10:16:17.731Z,14.00
2022-09-27T10:18:51.236Z,13.80
2022-09-27T10:24:58.939Z,13.50
2022-09-27T10:27:27.428Z,13.20
2022-09-27T10:30:01.283Z,13.20
2022-09-27T10:32:36.987Z,13.20
2022-09-27T10:35:43.440Z,13.20
2022-09-27T10:50:11.609Z,13.20
2022-09-27T10:52:48.300Z,13.50
2022-09-27T11:24:48.699Z,14.40
2022-09-27T11:27:29.400Z,14.40
2022-09-27T11:30:16.647Z,14.50
2022-09-27T11:32:52.513Z,14.70
2022-09-27T11:35:48.876Z,15.00
2022-09-27T11:38:51.803Z,15.30
2022-09-27T11:41:15.271Z,15.40
2022-09-27T11:44:05.341Z,15.40
2022-09-27T11:46:41.962Z,15.40
2022-09-27T11:49:28.387Z,15.00
2022-09-27T11:52:21.697Z,14.50
2022-09-27T11:55:23.944Z,14.20
2022-09-27T11:58:05.613Z,14.00
2022-09-27T12:01:05.725Z,13.80
2022-09-27T12:03:52.015Z,13.60
2022-09-27T13:30:47.478Z,13.00
2022-09-27T13:45:03.712Z,12.60
2022-09-27T13:47:46.052Z,12.70
2022-09-27T13:53:55.409Z,12.70
2022-09-27T14:02:36.835Z,12.60
2022-09-27T14:05:17.713Z,12.70
2022-09-27T14:07:47.436Z,12.50
2022-09-27T14:10:37.002Z,12.60
2022-09-27T14:13:06.195Z,12.40
2022-09-27T14:15:34.143Z,12.60
2022-09-27T14:18:01.597Z,12.70
2022-09-27T14:20:42.045Z,12.90
2022-09-27T14:23:26.518Z,13.00
2022-09-27T14:25:58.902Z,13.00
2022-09-27T14:28:31.438Z,13.00
2022-09-27T14:31:28.368Z,13.10
2022-09-27T14:34:08.711Z,13.10
2022-09-27T14:37:04.322Z,13.10
2022-09-27T14:39:37.905Z,13.10
2022-09-27T14:42:17.254Z,13.20
2022-09-27T14:44:45.489Z,13.30
2022-09-27T14:47:23.734Z,13.10
2022-09-27T14:49:53.556Z,13.10
2022-09-27T14:52:35.261Z,13.10
2022-09-27T14:55:21.087Z,13.10
2022-09-27T14:57:53.361Z,13.00
2022-09-27T15:00:25.522Z,12.90
2022-09-27T15:02:56.664Z,13.00
2022-09-27T15:05:27.197Z,13.00
2022-09-27T15:08:05.899Z,13.00
2022-09-27T15:10:36.165Z,12.80
2022-09-27T15:13:10.147Z,12.50
2022-09-27T15:15:39.850Z,12.50
2022-09-27T15:18:35.834Z,12.40
2022-09-27T15:21:04.526Z,12.30
2022-09-27T15:23:43.625Z,12.20
2022-09-27T15:26:22.275Z,12.20
2022-09-27T15:28:52.421Z,12.10
2022-09-27T15:31:36.762Z,12.10
2022-09-27T15:34:17.426Z,12.10
2022-09-27T15:36:56.603Z,12.00
2022-09-27T15:39:37.582Z,11.90
2022-09-27T15:42:17.940Z,11.70
2022-09-27T15:44:45.284Z,11.70
2022-09-27T15:47:41.773Z,11.70
2022-09-27T16:05:01.933Z,11.30
2022-09-27T16:07:30.659Z,11.30
2022-09-27T16:09:58.266Z,11.30
2022-09-27T16:12:30.388Z,11.30
2022-09-27T16:14:59.699Z,11.20
2022-09-27T16:17:36.663Z,11.20
2022-09-27T16:20:12.716Z,11.20
2022-09-27T16:22:57.760Z,11.20
2022-09-27T16:31:28.162Z,11.00
2022-09-27T16:40:06.675Z,10.80
2022-09-27T16:48:48.921Z,10.70
2022-09-27T16:57:29.429Z,10.70
2022-09-27T17:00:02.164Z,10.70
2022-09-27T17:02:31.710Z,10.60
2022-09-27T17:05:06.192Z,10.70
2022-09-27T17:07:43.378Z,10.60
2022-09-27T17:10:13.808Z,10.80
2022-09-27T17:12:47.864Z,10.70
2022-09-27T17:15:17.870Z,10.70
2022-09-27T17:17:59.974Z,10.70
2022-09-27T17:23:20.704Z,10.70
2022-09-27T17:25:56.757Z,10.70
2022-09-27T17:28:34.028Z,10.70
2022-09-27T17:31:18.623Z,10.60
2022-09-27T17:33:53.259Z,10.50
2022-09-27T17:36:39.529Z,10.60
2022-09-27T17:42:16.626Z,10.70
2022-09-27T17:44:50.904Z,10.60
2022-09-27T17:47:44.883Z,10.70
2022-09-27T17:50:30.243Z,10.80
2022-09-27T17:53:05.761Z,10.80
2022-09-27T17:55:43.820Z,10.70
2022-09-27T18:12:44.478Z,11.00
2022-09-27T18:15:11.534Z,10.90
2022-09-27T18:17:38.689Z,11.00
2022-09-27T18:20:06.739Z,11.00
2022-09-27T18:22:33.666Z,10.90
2022-09-27T18:25:00.961Z,11.00
2022-09-27T18:27:28.771Z,10.90
2022-09-27T18:29:56.531Z,11.00
2022-09-27T18:32:30.623Z,11.00
2022-09-27T18:34:58.887Z,11.00
2022-09-27T18:37:33.131Z,10.90
2022-09-27T18:40:07.732Z,11.10
2022-09-27T18:42:34.872Z,10.90
2022-09-27T18:45:06.502Z,10.90
2022-09-27T18:47:34.056Z,10.90
2022-09-27T18:50:01.363Z,10.90
2022-09-27T18:52:29.246Z,10.90
2022-09-27T18:54:57.339Z,10.90
2022-09-27T18:57:25.550Z,11.00
2022-09-27T18:59:53.230Z,11.00
2022-09-27T19:02:20.518Z,10.90
2022-09-27T19:04:47.626Z,10.90
2022-09-27T19:07:14.566Z,10.90
2022-09-27T19:09:41.789Z,10.90
2022-09-27T19:12:08.915Z,10.90
2022-09-27T19:14:36.118Z,11.00
2022-09-27T19:17:03.115Z,10.90
2022-09-27T19:19:30.222Z,10.90
2022-09-27T19:21:57.183Z,10.90
2022-09-27T19:24:24.316Z,10.90
2022-09-27T19:26:53.677Z,10.90
2022-09-27T19:29:20.741Z,10.90
2022-09-27T19:31:47.818Z,11.00
2022-09-27T19:34:14.995Z,11.00
2022-09-27T19:36:41.926Z,10.80
2022-09-27T19:39:09.103Z,10.70
2022-09-27T19:41:36.149Z,10.70
2022-09-27T19:44:03.227Z,10.70
2022-09-27T19:46:30.289Z,10.70
2022-09-27T19:48:57.553Z,10.70
2022-09-27T19:51:27.238Z,10.80
2022-09-27T19:53:55.102Z,10.80
2022-09-27T19:56:23.166Z,10.80
2022-09-27T19:58:50.205Z,10.90
2022-09-27T20:01:26.614Z,11.00
2022-09-27T20:03:57.966Z,10.90
2022-09-27T20:06:25.088Z,10.90
2022-09-27T20:08:52.445Z,10.90
2022-09-27T20:11:22.570Z,11.00
2022-09-27T20:13:51.671Z,11.00
2022-09-27T20:16:24.740Z,11.10
2022-09-27T20:18:57.073Z,11.00
2022-09-27T20:21:31.237Z,11.10
2022-09-27T20:23:59.613Z,11.10
2022-09-27T20:26:29.031Z,11.20
2022-09-27T20:28:59.075Z,11.10
2022-09-27T20:31:28.540Z,11.10
2022-09-27T20:33:56.052Z,11.10
2022-09-27T20:36:29.298Z,11.10
2022-09-27T20:39:03.062Z,11.20
2022-09-27T20:41:32.942Z,11.20
2022-09-27T20:44:05.592Z,11.20
2022-09-27T20:46:33.781Z,11.20
2022-09-27T20:49:03.753Z,11.20
2022-09-27T20:51:35.116Z,11.20
2022-09-27T20:54:04.297Z,11.20
2022-09-27T20:56:35.419Z,11.20
2022-09-27T20:59:10.372Z,11.30
2022-09-27T21:01:43.162Z,11.20
2022-09-27T21:04:10.120Z,11.20
2022-09-27T21:06:37.119Z,11.30
2022-09-27T21:09:06.393Z,11.30
2022-09-27T21:11:37.866Z,11.30
2022-09-27T21:14:05.092Z,11.20
2022-09-27T21:16:35.369Z,11.30
2022-09-27T21:19:02.511Z,11.20
2022-09-27T21:21:30.318Z,11.30
2022-09-27T21:23:59.447Z,11.30
2022-09-27T21:26:31.733Z,11.30
2022-09-27T21:29:00.691Z,11.30
2022-09-27T21:31:30.957Z,11.30
2022-09-27T21:34:00.192Z,11.30
2022-09-27T21:36:29.826Z,11.30
2022-09-27T21:38:57.284Z,11.40
2022-09-27T21:41:25.587Z,11.30
2022-09-27T21:43:53.195Z,11.30
2022-09-27T21:46:28.455Z,11.30
2022-09-27T21:48:57.855Z,11.30
2022-09-27T21:51:27.328Z,11.40
2022-09-27T21:54:06.595Z,11.40
2022-09-27T21:56:38.825Z,11.40
2022-09-27T21:59:07.719Z,11.40
2022-09-27T22:01:35.272Z,11.30
2022-09-27T22:04:05.362Z,11.30
2022-09-27T22:06:37.471Z,11.40
2022-09-27T22:09:16.294Z,11.40
2022-09-27T22:11:47.654Z,11.40
2022-09-27T22:14:16.348Z,11.40
2022-09-27T22:16:43.557Z,11.30
2022-09-27T22:19:12.598Z,11.40
2022-09-27T22:21:40.371Z,11.30
2022-09-27T22:24:16.110Z,11.40
2022-09-27T22:26:47.016Z,11.40
2022-09-27T22:29:14.202Z,11.50
2022-09-27T22:31:41.127Z,11.30
2022-09-27T22:46:57.154Z,11.30
2022-09-27T22:49:24.154Z,11.40
2022-09-27T22:51:51.087Z,11.30
2022-09-27T22:54:18.860Z,11.30
2022-09-27T22:56:45.682Z,11.40
2022-09-27T22:59:12.493Z,11.30
2022-09-27T23:01:39.360Z,11.30
2022-09-27T23:04:06.233Z,11.30
2022-09-27T23:06:33.356Z,11.30
2022-09-27T23:09:02.615Z,11.30
2022-09-27T23:11:30.388Z,11.30
2022-09-27T23:13:57.231Z,11.40
2022-09-27T23:16:24.708Z,11.30
2022-09-27T23:18:56.724Z,11.20
2022-09-27T23:21:26.187Z,11.20
2022-09-27T23:23:56.016Z,11.20
2022-09-27T23:26:26.189Z,11.20
2022-09-27T23:28:55.744Z,11.30
2022-09-27T23:31:23.875Z,11.20
2022-09-27T23:33:51.939Z,11.20
2022-09-27T23:36:22.466Z,11.20
2022-09-27T23:38:50.258Z,11.10
2022-09-27T23:41:17.870Z,11.30
2022-09-27T23:43:46.329Z,11.10
2022-09-27T23:46:13.916Z,11.10
2022-09-27T23:48:40.969Z,11.10
2022-09-27T23:51:10.162Z,11.20
2022-09-27T23:53:38.311Z,11.10
2022-09-27T23:56:07.693Z,11.00
